Rosemere, Canada
Current Conditions -  °F | °C
As of 3:26 PM on Saturday 25 Oct 2014 (Local Time) from CYMX Reporting Station
Rain Showers Rain Showers  
Wind Chill: 54°   Ceiling: 5400
Heat Index: 54°   Visibility: 15mi
Dew Point: 45°   Wind: 3mph
Humidity: 72%   Direction: 180°S
Pressure: 29.52"   Gusts: NA
Location:  45.63°N, 73.82°W
Report Text: CYMX 251926Z 18003KT 160V230 15SM -SHRA SCT030 OVC054 12/07 A2952 RMK SC4SC4 VIS W 5 SLP999 DENSITY ALT 400FT
Loading
Personal Weather Stations






























Interactive Weather Map
Tropical Storm Tracking
New forecast layout! Learn more

10-Day Weather Forecast

Advertisements
Track Severe Weather on mobile